sensor_id;sensor_type;location;lat;lon;timestamp;P1;durP1;ratioP1;P2;durP2;ratioP2
69392;SDS011;56582;44.624;20.378;2023-06-14T00:00:37;6.73;;;3.43;;
69392;SDS011;56582;44.624;20.378;2023-06-14T00:03:06;8.70;;;3.90;;
69392;SDS011;56582;44.624;20.378;2023-06-14T00:05:33;6.55;;;4.20;;
69392;SDS011;56582;44.624;20.378;2023-06-14T00:08:03;6.72;;;3.70;;
69392;SDS011;56582;44.624;20.378;2023-06-14T00:10:32;8.80;;;4.00;;
69392;SDS011;56582;44.624;20.378;2023-06-14T00:13:00;6.90;;;4.03;;
69392;SDS011;56582;44.624;20.378;2023-06-14T00:15:30;5.90;;;3.88;;
69392;SDS011;56582;44.624;20.378;2023-06-14T00:17:56;6.43;;;4.15;;
69392;SDS011;56582;44.624;20.378;2023-06-14T00:20:29;7.00;;;3.80;;
69392;SDS011;56582;44.624;20.378;2023-06-14T00:22:59;5.70;;;3.37;;
69392;SDS011;56582;44.624;20.378;2023-06-14T00:25:25;7.15;;;4.38;;
69392;SDS011;56582;44.624;20.378;2023-06-14T00:27:51;6.47;;;3.70;;
69392;SDS011;56582;44.624;20.378;2023-06-14T00:30:17;8.57;;;4.13;;
69392;SDS011;56582;44.624;20.378;2023-06-14T00:32:43;6.93;;;4.20;;
69392;SDS011;56582;44.624;20.378;2023-06-14T00:35:09;7.25;;;4.22;;
69392;SDS011;56582;44.624;20.378;2023-06-14T00:37:35;6.63;;;3.90;;
69392;SDS011;56582;44.624;20.378;2023-06-14T00:40:00;5.97;;;4.13;;
69392;SDS011;56582;44.624;20.378;2023-06-14T00:42:26;6.13;;;4.13;;
69392;SDS011;56582;44.624;20.378;2023-06-14T00:44:53;6.13;;;4.07;;
69392;SDS011;56582;44.624;20.378;2023-06-14T00:47:19;6.65;;;4.40;;
69392;SDS011;56582;44.624;20.378;2023-06-14T00:49:45;6.78;;;4.68;;
69392;SDS011;56582;44.624;20.378;2023-06-14T00:52:15;6.10;;;4.13;;
69392;SDS011;56582;44.624;20.378;2023-06-14T00:54:41;6.50;;;4.27;;
69392;SDS011;56582;44.624;20.378;2023-06-14T00:57:07;6.45;;;4.07;;
69392;SDS011;56582;44.624;20.378;2023-06-14T00:59:35;5.88;;;4.43;;
69392;SDS011;56582;44.624;20.378;2023-06-14T01:02:06;6.17;;;4.20;;
69392;SDS011;56582;44.624;20.378;2023-06-14T01:04:32;5.60;;;3.83;;
69392;SDS011;56582;44.624;20.378;2023-06-14T01:14:48;8.07;;;4.40;;
69392;SDS011;56582;44.624;20.378;2023-06-14T01:17:15;6.82;;;4.10;;
69392;SDS011;56582;44.624;20.378;2023-06-14T01:19:45;6.07;;;4.27;;
69392;SDS011;56582;44.624;20.378;2023-06-14T01:22:10;5.40;;;3.95;;
69392;SDS011;56582;44.624;20.378;2023-06-14T01:24:36;5.80;;;3.38;;
69392;SDS011;56582;44.624;20.378;2023-06-14T01:27:04;6.80;;;4.67;;
69392;SDS011;56582;44.624;20.378;2023-06-14T01:29:32;7.95;;;3.80;;
69392;SDS011;56582;44.624;20.378;2023-06-14T01:31:58;7.97;;;4.50;;
69392;SDS011;56582;44.624;20.378;2023-06-14T01:34:25;6.90;;;3.60;;
69392;SDS011;56582;44.624;20.378;2023-06-14T01:36:51;6.90;;;3.77;;
69392;SDS011;56582;44.624;20.378;2023-06-14T01:39:19;6.95;;;4.00;;
69392;SDS011;56582;44.624;20.378;2023-06-14T01:41:46;5.72;;;3.80;;
69392;SDS011;56582;44.624;20.378;2023-06-14T01:44:14;5.95;;;4.30;;
69392;SDS011;56582;44.624;20.378;2023-06-14T01:46:41;8.13;;;3.97;;
69392;SDS011;56582;44.624;20.378;2023-06-14T01:49:08;7.18;;;4.00;;
69392;SDS011;56582;44.624;20.378;2023-06-14T01:51:34;6.07;;;3.92;;
69392;SDS011;56582;44.624;20.378;2023-06-14T01:54:00;5.40;;;3.67;;
69392;SDS011;56582;44.624;20.378;2023-06-14T01:56:26;7.15;;;3.90;;
69392;SDS011;56582;44.624;20.378;2023-06-14T01:58:52;6.60;;;4.70;;
69392;SDS011;56582;44.624;20.378;2023-06-14T02:01:18;6.50;;;3.80;;
69392;SDS011;56582;44.624;20.378;2023-06-14T02:03:46;6.75;;;3.80;;
69392;SDS011;56582;44.624;20.378;2023-06-14T02:06:13;6.97;;;3.72;;
69392;SDS011;56582;44.624;20.378;2023-06-14T02:08:40;7.03;;;4.03;;
69392;SDS011;56582;44.624;20.378;2023-06-14T02:11:06;7.20;;;3.95;;
69392;SDS011;56582;44.624;20.378;2023-06-14T02:13:32;7.13;;;4.13;;
69392;SDS011;56582;44.624;20.378;2023-06-14T02:15:57;6.23;;;5.03;;
69392;SDS011;56582;44.624;20.378;2023-06-14T02:18:24;6.93;;;3.85;;
69392;SDS011;56582;44.624;20.378;2023-06-14T02:20:50;6.40;;;4.23;;
69392;SDS011;56582;44.624;20.378;2023-06-14T02:23:15;7.25;;;4.88;;
69392;SDS011;56582;44.624;20.378;2023-06-14T02:25:41;6.83;;;4.23;;
69392;SDS011;56582;44.624;20.378;2023-06-14T02:28:08;6.82;;;4.60;;
69392;SDS011;56582;44.624;20.378;2023-06-14T02:30:42;6.20;;;4.10;;
69392;SDS011;56582;44.624;20.378;2023-06-14T02:33:08;7.82;;;3.85;;
69392;SDS011;56582;44.624;20.378;2023-06-14T02:35:37;9.73;;;4.05;;
69392;SDS011;56582;44.624;20.378;2023-06-14T02:38:02;6.20;;;4.33;;
69392;SDS011;56582;44.624;20.378;2023-06-14T02:40:28;5.87;;;4.03;;
69392;SDS011;56582;44.624;20.378;2023-06-14T02:42:53;6.50;;;4.00;;
69392;SDS011;56582;44.624;20.378;2023-06-14T02:45:18;5.00;;;3.20;;
69392;SDS011;56582;44.624;20.378;2023-06-14T02:47:45;5.57;;;3.70;;
69392;SDS011;56582;44.624;20.378;2023-06-14T02:50:11;6.32;;;3.80;;
69392;SDS011;56582;44.624;20.378;2023-06-14T02:52:36;5.07;;;3.10;;
69392;SDS011;56582;44.624;20.378;2023-06-14T02:55:03;6.68;;;3.58;;
69392;SDS011;56582;44.624;20.378;2023-06-14T02:57:28;5.43;;;3.27;;
69392;SDS011;56582;44.624;20.378;2023-06-14T02:59:54;5.28;;;3.78;;
69392;SDS011;56582;44.624;20.378;2023-06-14T03:02:20;6.17;;;3.80;;
69392;SDS011;56582;44.624;20.378;2023-06-14T03:04:45;6.70;;;3.40;;
69392;SDS011;56582;44.624;20.378;2023-06-14T03:07:11;5.32;;;3.47;;
69392;SDS011;56582;44.624;20.378;2023-06-14T03:09:38;4.90;;;2.95;;
69392;SDS011;56582;44.624;20.378;2023-06-14T03:12:04;6.60;;;3.50;;
69392;SDS011;56582;44.624;20.378;2023-06-14T03:14:35;7.10;;;4.35;;
69392;SDS011;56582;44.624;20.378;2023-06-14T03:17:01;5.80;;;3.97;;
69392;SDS011;56582;44.624;20.378;2023-06-14T03:19:26;4.97;;;3.33;;
69392;SDS011;56582;44.624;20.378;2023-06-14T03:21:52;5.47;;;3.70;;
69392;SDS011;56582;44.624;20.378;2023-06-14T03:24:18;5.45;;;3.35;;
69392;SDS011;56582;44.624;20.378;2023-06-14T03:26:44;6.40;;;3.72;;
69392;SDS011;56582;44.624;20.378;2023-06-14T03:29:10;6.07;;;3.50;;
69392;SDS011;56582;44.624;20.378;2023-06-14T03:31:36;7.50;;;3.43;;
69392;SDS011;56582;44.624;20.378;2023-06-14T03:34:01;5.73;;;3.90;;
69392;SDS011;56582;44.624;20.378;2023-06-14T03:36:27;8.10;;;3.70;;
69392;SDS011;56582;44.624;20.378;2023-06-14T03:38:55;5.27;;;3.30;;
69392;SDS011;56582;44.624;20.378;2023-06-14T03:41:21;6.20;;;3.60;;
69392;SDS011;56582;44.624;20.378;2023-06-14T03:43:46;5.10;;;3.30;;
69392;SDS011;56582;44.624;20.378;2023-06-14T03:46:12;5.87;;;3.60;;
69392;SDS011;56582;44.624;20.378;2023-06-14T03:48:37;8.57;;;3.40;;
69392;SDS011;56582;44.624;20.378;2023-06-14T03:51:03;6.88;;;3.60;;
69392;SDS011;56582;44.624;20.378;2023-06-14T03:53:29;5.95;;;3.65;;
69392;SDS011;56582;44.624;20.378;2023-06-14T03:55:55;4.68;;;3.15;;
69392;SDS011;56582;44.624;20.378;2023-06-14T03:58:22;6.00;;;3.30;;
69392;SDS011;56582;44.624;20.378;2023-06-14T04:00:47;5.28;;;3.63;;
69392;SDS011;56582;44.624;20.378;2023-06-14T04:03:13;5.63;;;3.47;;
69392;SDS011;56582;44.624;20.378;2023-06-14T04:05:40;5.90;;;3.70;;
69392;SDS011;56582;44.624;20.378;2023-06-14T04:08:09;5.97;;;3.65;;
69392;SDS011;56582;44.624;20.378;2023-06-14T04:10:35;5.87;;;3.80;;
69392;SDS011;56582;44.624;20.378;2023-06-14T04:13:00;5.70;;;3.50;;
69392;SDS011;56582;44.624;20.378;2023-06-14T04:15:26;6.10;;;3.93;;
69392;SDS011;56582;44.624;20.378;2023-06-14T04:17:53;7.95;;;4.40;;
69392;SDS011;56582;44.624;20.378;2023-06-14T04:20:22;6.40;;;3.97;;
69392;SDS011;56582;44.624;20.378;2023-06-14T04:22:49;5.20;;;3.47;;
69392;SDS011;56582;44.624;20.378;2023-06-14T04:25:15;7.53;;;4.63;;
69392;SDS011;56582;44.624;20.378;2023-06-14T04:27:41;5.55;;;3.45;;
69392;SDS011;56582;44.624;20.378;2023-06-14T04:30:08;5.35;;;3.50;;
69392;SDS011;56582;44.624;20.378;2023-06-14T04:32:34;6.50;;;3.87;;
69392;SDS011;56582;44.624;20.378;2023-06-14T04:35:05;6.22;;;4.07;;
69392;SDS011;56582;44.624;20.378;2023-06-14T04:37:34;7.25;;;4.38;;
69392;SDS011;56582;44.624;20.378;2023-06-14T04:39:59;5.97;;;4.30;;
69392;SDS011;56582;44.624;20.378;2023-06-14T04:42:25;8.83;;;4.03;;
69392;SDS011;56582;44.624;20.378;2023-06-14T04:44:55;5.65;;;3.70;;
69392;SDS011;56582;44.624;20.378;2023-06-14T04:47:21;7.57;;;3.73;;
69392;SDS011;56582;44.624;20.378;2023-06-14T04:49:47;8.15;;;4.07;;
69392;SDS011;56582;44.624;20.378;2023-06-14T04:52:12;9.30;;;4.53;;
69392;SDS011;56582;44.624;20.378;2023-06-14T04:54:38;6.65;;;3.90;;
69392;SDS011;56582;44.624;20.378;2023-06-14T04:57:09;6.17;;;4.30;;
69392;SDS011;56582;44.624;20.378;2023-06-14T04:59:38;10.45;;;3.90;;
69392;SDS011;56582;44.624;20.378;2023-06-14T05:02:04;8.55;;;4.60;;
69392;SDS011;56582;44.624;20.378;2023-06-14T05:04:30;6.80;;;4.40;;
69392;SDS011;56582;44.624;20.378;2023-06-14T05:06:55;7.35;;;4.45;;
69392;SDS011;56582;44.624;20.378;2023-06-14T05:09:21;9.03;;;4.60;;
69392;SDS011;56582;44.624;20.378;2023-06-14T05:11:47;8.20;;;4.95;;
69392;SDS011;56582;44.624;20.378;2023-06-14T05:14:13;9.37;;;4.90;;
69392;SDS011;56582;44.624;20.378;2023-06-14T05:16:39;8.48;;;5.03;;
69392;SDS011;56582;44.624;20.378;2023-06-14T05:19:05;9.13;;;4.68;;
69392;SDS011;56582;44.624;20.378;2023-06-14T05:21:31;7.78;;;4.72;;
69392;SDS011;56582;44.624;20.378;2023-06-14T05:23:58;8.18;;;5.43;;
69392;SDS011;56582;44.624;20.378;2023-06-14T05:26:24;9.50;;;4.73;;
69392;SDS011;56582;44.624;20.378;2023-06-14T05:28:53;7.80;;;4.93;;
69392;SDS011;56582;44.624;20.378;2023-06-14T05:31:22;7.40;;;4.90;;
69392;SDS011;56582;44.624;20.378;2023-06-14T05:33:49;10.18;;;5.22;;
69392;SDS011;56582;44.624;20.378;2023-06-14T05:36:15;7.03;;;5.07;;
69392;SDS011;56582;44.624;20.378;2023-06-14T05:38:40;7.90;;;4.77;;
69392;SDS011;56582;44.624;20.378;2023-06-14T05:41:06;8.03;;;4.97;;
69392;SDS011;56582;44.624;20.378;2023-06-14T05:43:31;9.10;;;5.60;;
69392;SDS011;56582;44.624;20.378;2023-06-14T05:45:57;7.85;;;5.28;;
69392;SDS011;56582;44.624;20.378;2023-06-14T05:48:22;7.03;;;4.83;;
69392;SDS011;56582;44.624;20.378;2023-06-14T05:50:48;6.43;;;4.93;;
69392;SDS011;56582;44.624;20.378;2023-06-14T05:53:13;6.83;;;4.77;;
69392;SDS011;56582;44.624;20.378;2023-06-14T05:55:39;7.13;;;3.72;;
69392;SDS011;56582;44.624;20.378;2023-06-14T05:58:04;6.13;;;4.67;;
69392;SDS011;56582;44.624;20.378;2023-06-14T06:00:30;6.00;;;4.80;;
69392;SDS011;56582;44.624;20.378;2023-06-14T06:02:56;6.85;;;3.92;;
69392;SDS011;56582;44.624;20.378;2023-06-14T06:05:24;5.65;;;4.13;;
69392;SDS011;56582;44.624;20.378;2023-06-14T06:07:50;6.57;;;4.00;;
69392;SDS011;56582;44.624;20.378;2023-06-14T06:10:17;5.50;;;4.18;;
69392;SDS011;56582;44.624;20.378;2023-06-14T06:12:42;5.77;;;3.53;;
69392;SDS011;56582;44.624;20.378;2023-06-14T06:15:08;6.60;;;3.40;;
69392;SDS011;56582;44.624;20.378;2023-06-14T06:17:37;5.97;;;3.83;;
69392;SDS011;56582;44.624;20.378;2023-06-14T06:20:02;5.05;;;3.28;;
69392;SDS011;56582;44.624;20.378;2023-06-14T06:22:30;4.93;;;3.78;;
69392;SDS011;56582;44.624;20.378;2023-06-14T06:24:55;10.53;;;5.97;;
69392;SDS011;56582;44.624;20.378;2023-06-14T06:27:21;7.93;;;7.13;;
69392;SDS011;56582;44.624;20.378;2023-06-14T06:29:46;5.10;;;3.73;;
69392;SDS011;56582;44.624;20.378;2023-06-14T06:32:13;4.63;;;3.10;;
69392;SDS011;56582;44.624;20.378;2023-06-14T06:34:39;5.43;;;3.83;;
69392;SDS011;56582;44.624;20.378;2023-06-14T06:37:05;5.63;;;3.47;;
69392;SDS011;56582;44.624;20.378;2023-06-14T06:39:31;4.80;;;3.10;;
69392;SDS011;56582;44.624;20.378;2023-06-14T06:41:56;6.07;;;3.53;;
69392;SDS011;56582;44.624;20.378;2023-06-14T06:44:22;8.63;;;3.83;;
69392;SDS011;56582;44.624;20.378;2023-06-14T06:46:47;4.85;;;2.92;;
69392;SDS011;56582;44.624;20.378;2023-06-14T06:49:13;5.70;;;3.77;;
69392;SDS011;56582;44.624;20.378;2023-06-14T06:51:40;5.50;;;3.93;;
69392;SDS011;56582;44.624;20.378;2023-06-14T06:54:07;6.80;;;3.80;;
69392;SDS011;56582;44.624;20.378;2023-06-14T06:56:33;7.05;;;3.50;;
69392;SDS011;56582;44.624;20.378;2023-06-14T06:58:59;5.63;;;3.77;;
69392;SDS011;56582;44.624;20.378;2023-06-14T07:01:24;5.87;;;3.90;;
69392;SDS011;56582;44.624;20.378;2023-06-14T07:03:51;5.85;;;4.15;;
69392;SDS011;56582;44.624;20.378;2023-06-14T07:06:16;7.87;;;3.93;;
69392;SDS011;56582;44.624;20.378;2023-06-14T07:08:43;7.88;;;4.05;;
69392;SDS011;56582;44.624;20.378;2023-06-14T07:11:09;5.57;;;3.70;;
69392;SDS011;56582;44.624;20.378;2023-06-14T07:13:35;5.45;;;3.00;;
69392;SDS011;56582;44.624;20.378;2023-06-14T07:16:00;5.73;;;3.90;;
69392;SDS011;56582;44.624;20.378;2023-06-14T07:18:26;5.22;;;4.18;;
69392;SDS011;56582;44.624;20.378;2023-06-14T07:20:53;6.43;;;3.53;;
69392;SDS011;56582;44.624;20.378;2023-06-14T07:23:19;5.95;;;3.35;;
69392;SDS011;56582;44.624;20.378;2023-06-14T07:25:47;5.82;;;3.47;;
69392;SDS011;56582;44.624;20.378;2023-06-14T07:28:12;5.10;;;3.43;;
69392;SDS011;56582;44.624;20.378;2023-06-14T07:30:38;6.10;;;3.97;;
69392;SDS011;56582;44.624;20.378;2023-06-14T07:33:03;6.53;;;3.70;;
69392;SDS011;56582;44.624;20.378;2023-06-14T07:35:29;5.60;;;3.67;;
69392;SDS011;56582;44.624;20.378;2023-06-14T07:37:54;5.50;;;3.93;;
69392;SDS011;56582;44.624;20.378;2023-06-14T07:40:20;5.60;;;4.13;;
69392;SDS011;56582;44.624;20.378;2023-06-14T07:42:45;6.33;;;3.80;;
69392;SDS011;56582;44.624;20.378;2023-06-14T07:45:13;4.68;;;3.33;;
69392;SDS011;56582;44.624;20.378;2023-06-14T07:47:39;8.03;;;3.53;;
69392;SDS011;56582;44.624;20.378;2023-06-14T07:50:04;5.82;;;3.25;;
69392;SDS011;56582;44.624;20.378;2023-06-14T07:52:30;6.30;;;3.93;;
69392;SDS011;56582;44.624;20.378;2023-06-14T07:54:56;11.10;;;4.28;;
69392;SDS011;56582;44.624;20.378;2023-06-14T07:57:21;7.23;;;4.53;;
69392;SDS011;56582;44.624;20.378;2023-06-14T07:59:47;5.85;;;4.07;;
69392;SDS011;56582;44.624;20.378;2023-06-14T08:02:13;6.72;;;4.05;;
69392;SDS011;56582;44.624;20.378;2023-06-14T08:04:39;4.70;;;3.50;;
69392;SDS011;56582;44.624;20.378;2023-06-14T08:07:05;6.68;;;3.92;;
69392;SDS011;56582;44.624;20.378;2023-06-14T08:09:31;7.93;;;4.73;;
69392;SDS011;56582;44.624;20.378;2023-06-14T08:11:56;5.90;;;3.83;;
69392;SDS011;56582;44.624;20.378;2023-06-14T08:14:22;4.83;;;3.37;;
69392;SDS011;56582;44.624;20.378;2023-06-14T08:16:48;5.55;;;3.67;;
69392;SDS011;56582;44.624;20.378;2023-06-14T08:19:13;5.63;;;3.47;;
69392;SDS011;56582;44.624;20.378;2023-06-14T08:21:39;5.10;;;3.57;;
69392;SDS011;56582;44.624;20.378;2023-06-14T08:24:05;5.47;;;3.20;;
69392;SDS011;56582;44.624;20.378;2023-06-14T08:26:30;5.78;;;3.53;;
69392;SDS011;56582;44.624;20.378;2023-06-14T08:28:57;4.88;;;3.50;;
69392;SDS011;56582;44.624;20.378;2023-06-14T08:31:22;5.77;;;3.60;;
69392;SDS011;56582;44.624;20.378;2023-06-14T08:33:49;5.25;;;3.70;;
69392;SDS011;56582;44.624;20.378;2023-06-14T08:36:14;5.37;;;3.40;;
69392;SDS011;56582;44.624;20.378;2023-06-14T08:38:40;6.53;;;3.65;;
69392;SDS011;56582;44.624;20.378;2023-06-14T08:41:05;7.50;;;3.50;;
69392;SDS011;56582;44.624;20.378;2023-06-14T08:43:31;5.32;;;4.05;;
69392;SDS011;56582;44.624;20.378;2023-06-14T08:46:02;5.13;;;3.47;;
69392;SDS011;56582;44.624;20.378;2023-06-14T08:48:29;6.30;;;3.60;;
69392;SDS011;56582;44.624;20.378;2023-06-14T08:51:01;5.45;;;3.55;;
69392;SDS011;56582;44.624;20.378;2023-06-14T08:53:30;5.30;;;3.53;;
69392;SDS011;56582;44.624;20.378;2023-06-14T08:55:59;5.30;;;3.70;;
69392;SDS011;56582;44.624;20.378;2023-06-14T08:58:30;4.82;;;3.50;;
69392;SDS011;56582;44.624;20.378;2023-06-14T09:00:56;5.47;;;4.00;;
69392;SDS011;56582;44.624;20.378;2023-06-14T09:03:23;6.65;;;3.70;;
69392;SDS011;56582;44.624;20.378;2023-06-14T09:05:57;5.80;;;3.95;;
69392;SDS011;56582;44.624;20.378;2023-06-14T09:08:26;7.87;;;3.80;;
69392;SDS011;56582;44.624;20.378;2023-06-14T09:10:55;6.63;;;3.40;;
69392;SDS011;56582;44.624;20.378;2023-06-14T09:13:21;6.93;;;3.55;;
69392;SDS011;56582;44.624;20.378;2023-06-14T09:15:46;6.37;;;3.37;;
69392;SDS011;56582;44.624;20.378;2023-06-14T09:18:12;4.72;;;3.53;;
69392;SDS011;56582;44.624;20.378;2023-06-14T09:20:37;4.97;;;3.60;;
69392;SDS011;56582;44.624;20.378;2023-06-14T09:23:03;5.20;;;3.50;;
69392;SDS011;56582;44.624;20.378;2023-06-14T09:25:30;5.15;;;3.38;;
69392;SDS011;56582;44.624;20.378;2023-06-14T09:27:55;6.07;;;4.27;;
69392;SDS011;56582;44.624;20.378;2023-06-14T09:30:21;6.45;;;3.97;;
69392;SDS011;56582;44.624;20.378;2023-06-14T09:32:46;5.67;;;3.97;;
69392;SDS011;56582;44.624;20.378;2023-06-14T09:35:12;5.87;;;3.37;;
69392;SDS011;56582;44.624;20.378;2023-06-14T09:37:42;7.47;;;3.92;;
69392;SDS011;56582;44.624;20.378;2023-06-14T09:40:08;5.23;;;3.60;;
69392;SDS011;56582;44.624;20.378;2023-06-14T09:42:33;8.48;;;4.43;;
69392;SDS011;56582;44.624;20.378;2023-06-14T09:45:00;7.47;;;3.78;;
69392;SDS011;56582;44.624;20.378;2023-06-14T09:47:28;6.73;;;3.67;;
69392;SDS011;56582;44.624;20.378;2023-06-14T09:49:53;5.30;;;3.90;;
69392;SDS011;56582;44.624;20.378;2023-06-14T09:52:20;5.65;;;4.13;;
69392;SDS011;56582;44.624;20.378;2023-06-14T09:54:47;5.20;;;3.90;;
69392;SDS011;56582;44.624;20.378;2023-06-14T09:57:21;5.60;;;4.00;;
69392;SDS011;56582;44.624;20.378;2023-06-14T09:59:48;7.70;;;4.40;;
69392;SDS011;56582;44.624;20.378;2023-06-14T10:02:27;5.30;;;4.28;;
69392;SDS011;56582;44.624;20.378;2023-06-14T10:05:04;6.93;;;4.38;;
69392;SDS011;56582;44.624;20.378;2023-06-14T10:07:32;6.47;;;4.63;;
69392;SDS011;56582;44.624;20.378;2023-06-14T10:10:04;7.35;;;4.50;;
69392;SDS011;56582;44.624;20.378;2023-06-14T10:12:30;5.93;;;4.32;;
69392;SDS011;56582;44.624;20.378;2023-06-14T10:14:56;6.65;;;4.93;;
69392;SDS011;56582;44.624;20.378;2023-06-14T10:17:27;6.70;;;4.33;;
69392;SDS011;56582;44.624;20.378;2023-06-14T10:22:38;8.85;;;5.38;;
69392;SDS011;56582;44.624;20.378;2023-06-14T10:25:12;7.72;;;5.97;;
69392;SDS011;56582;44.624;20.378;2023-06-14T10:27:38;7.32;;;4.47;;
69392;SDS011;56582;44.624;20.378;2023-06-14T10:30:04;7.60;;;4.87;;
69392;SDS011;56582;44.624;20.378;2023-06-14T10:32:32;7.82;;;4.60;;
69392;SDS011;56582;44.624;20.378;2023-06-14T10:34:59;8.43;;;5.60;;
69392;SDS011;56582;44.624;20.378;2023-06-14T10:37:26;9.75;;;6.18;;
69392;SDS011;56582;44.624;20.378;2023-06-14T10:39:52;7.13;;;5.32;;
69392;SDS011;56582;44.624;20.378;2023-06-14T10:42:18;9.05;;;5.70;;
69392;SDS011;56582;44.624;20.378;2023-06-14T10:44:54;8.47;;;6.00;;
69392;SDS011;56582;44.624;20.378;2023-06-14T10:47:21;7.53;;;5.65;;
69392;SDS011;56582;44.624;20.378;2023-06-14T10:49:51;8.88;;;5.50;;
69392;SDS011;56582;44.624;20.378;2023-06-14T10:52:20;9.13;;;6.57;;
69392;SDS011;56582;44.624;20.378;2023-06-14T10:57:25;7.30;;;5.43;;
69392;SDS011;56582;44.624;20.378;2023-06-14T10:59:51;8.40;;;5.20;;
69392;SDS011;56582;44.624;20.378;2023-06-14T11:04:51;8.95;;;5.28;;
69392;SDS011;56582;44.624;20.378;2023-06-14T11:09:57;8.67;;;4.90;;
69392;SDS011;56582;44.624;20.378;2023-06-14T11:12:32;7.30;;;4.68;;
69392;SDS011;56582;44.624;20.378;2023-06-14T11:15:00;8.23;;;4.30;;
69392;SDS011;56582;44.624;20.378;2023-06-14T11:17:26;6.77;;;4.50;;
69392;SDS011;56582;44.624;20.378;2023-06-14T11:20:06;5.70;;;3.90;;
69392;SDS011;56582;44.624;20.378;2023-06-14T11:22:41;6.00;;;3.80;;
69392;SDS011;56582;44.624;20.378;2023-06-14T11:25:13;6.10;;;3.90;;
69392;SDS011;56582;44.624;20.378;2023-06-14T11:27:42;6.38;;;4.57;;
69392;SDS011;56582;44.624;20.378;2023-06-14T11:30:08;5.78;;;4.13;;
69392;SDS011;56582;44.624;20.378;2023-06-14T11:32:37;8.45;;;4.40;;
69392;SDS011;56582;44.624;20.378;2023-06-14T11:35:03;6.97;;;4.97;;
69392;SDS011;56582;44.624;20.378;2023-06-14T11:37:33;6.97;;;4.88;;
69392;SDS011;56582;44.624;20.378;2023-06-14T11:39:59;5.75;;;3.45;;
69392;SDS011;56582;44.624;20.378;2023-06-14T11:42:27;5.00;;;3.45;;
69392;SDS011;56582;44.624;20.378;2023-06-14T11:44:53;5.53;;;3.57;;
69392;SDS011;56582;44.624;20.378;2023-06-14T11:47:20;6.10;;;4.10;;
69392;SDS011;56582;44.624;20.378;2023-06-14T11:49:46;5.20;;;3.60;;
69392;SDS011;56582;44.624;20.378;2023-06-14T11:52:11;6.77;;;4.93;;
69392;SDS011;56582;44.624;20.378;2023-06-14T11:54:37;6.97;;;4.00;;
69392;SDS011;56582;44.624;20.378;2023-06-14T11:57:03;6.53;;;3.80;;
69392;SDS011;56582;44.624;20.378;2023-06-14T11:59:29;7.07;;;3.80;;
69392;SDS011;56582;44.624;20.378;2023-06-14T12:01:56;6.30;;;3.87;;
69392;SDS011;56582;44.624;20.378;2023-06-14T12:04:28;5.75;;;3.90;;
69392;SDS011;56582;44.624;20.378;2023-06-14T12:06:54;8.23;;;3.85;;
69392;SDS011;56582;44.624;20.378;2023-06-14T12:09:21;6.38;;;4.43;;
69392;SDS011;56582;44.624;20.378;2023-06-14T12:11:48;7.82;;;3.65;;
69392;SDS011;56582;44.624;20.378;2023-06-14T12:14:15;6.37;;;4.13;;
69392;SDS011;56582;44.624;20.378;2023-06-14T12:16:41;5.85;;;4.00;;
69392;SDS011;56582;44.624;20.378;2023-06-14T12:19:08;6.43;;;4.20;;
69392;SDS011;56582;44.624;20.378;2023-06-14T12:21:36;5.60;;;3.90;;
69392;SDS011;56582;44.624;20.378;2023-06-14T12:24:03;6.70;;;4.10;;
69392;SDS011;56582;44.624;20.378;2023-06-14T12:26:31;5.88;;;3.72;;
69392;SDS011;56582;44.624;20.378;2023-06-14T12:28:57;6.75;;;4.25;;
69392;SDS011;56582;44.624;20.378;2023-06-14T12:31:23;5.70;;;4.10;;
69392;SDS011;56582;44.624;20.378;2023-06-14T12:33:49;5.22;;;3.75;;
69392;SDS011;56582;44.624;20.378;2023-06-14T12:36:15;6.10;;;4.22;;
69392;SDS011;56582;44.624;20.378;2023-06-14T12:38:41;5.70;;;4.10;;
69392;SDS011;56582;44.624;20.378;2023-06-14T12:41:07;6.80;;;4.60;;
69392;SDS011;56582;44.624;20.378;2023-06-14T12:43:33;8.20;;;3.95;;
69392;SDS011;56582;44.624;20.378;2023-06-14T12:45:59;7.22;;;4.45;;
69392;SDS011;56582;44.624;20.378;2023-06-14T12:48:25;4.93;;;3.70;;
69392;SDS011;56582;44.624;20.378;2023-06-14T12:50:52;5.25;;;3.60;;
69392;SDS011;56582;44.624;20.378;2023-06-14T12:53:17;5.78;;;3.97;;
69392;SDS011;56582;44.624;20.378;2023-06-14T12:55:43;6.30;;;3.03;;
69392;SDS011;56582;44.624;20.378;2023-06-14T12:58:08;5.57;;;3.97;;
69392;SDS011;56582;44.624;20.378;2023-06-14T13:00:34;5.30;;;3.90;;
69392;SDS011;56582;44.624;20.378;2023-06-14T13:03:00;5.37;;;3.63;;
69392;SDS011;56582;44.624;20.378;2023-06-14T13:05:26;5.40;;;4.18;;
69392;SDS011;56582;44.624;20.378;2023-06-14T13:07:51;7.07;;;3.17;;
69392;SDS011;56582;44.624;20.378;2023-06-14T13:10:17;4.93;;;3.10;;
69392;SDS011;56582;44.624;20.378;2023-06-14T13:12:42;5.38;;;4.03;;
69392;SDS011;56582;44.624;20.378;2023-06-14T13:15:09;4.55;;;3.45;;
69392;SDS011;56582;44.624;20.378;2023-06-14T13:17:35;6.83;;;3.90;;
69392;SDS011;56582;44.624;20.378;2023-06-14T13:20:06;5.15;;;3.75;;
69392;SDS011;56582;44.624;20.378;2023-06-14T13:22:33;6.20;;;3.92;;
69392;SDS011;56582;44.624;20.378;2023-06-14T13:24:59;5.82;;;3.60;;
69392;SDS011;56582;44.624;20.378;2023-06-14T13:27:25;7.10;;;3.93;;
69392;SDS011;56582;44.624;20.378;2023-06-14T13:29:51;5.25;;;3.67;;
69392;SDS011;56582;44.624;20.378;2023-06-14T13:32:17;6.35;;;4.25;;
69392;SDS011;56582;44.624;20.378;2023-06-14T13:34:42;5.77;;;3.80;;
69392;SDS011;56582;44.624;20.378;2023-06-14T13:37:07;5.37;;;3.90;;
69392;SDS011;56582;44.624;20.378;2023-06-14T13:39:33;6.57;;;4.10;;
69392;SDS011;56582;44.624;20.378;2023-06-14T13:41:58;6.15;;;3.58;;
69392;SDS011;56582;44.624;20.378;2023-06-14T13:44:24;6.27;;;3.90;;
69392;SDS011;56582;44.624;20.378;2023-06-14T13:46:50;8.95;;;3.58;;
69392;SDS011;56582;44.624;20.378;2023-06-14T13:49:15;5.17;;;3.50;;
69392;SDS011;56582;44.624;20.378;2023-06-14T13:51:41;5.88;;;3.30;;
69392;SDS011;56582;44.624;20.378;2023-06-14T13:54:07;5.67;;;3.93;;
69392;SDS011;56582;44.624;20.378;2023-06-14T13:56:32;7.13;;;4.13;;
69392;SDS011;56582;44.624;20.378;2023-06-14T13:58:58;6.75;;;3.60;;
69392;SDS011;56582;44.624;20.378;2023-06-14T14:01:24;5.07;;;3.25;;
69392;SDS011;56582;44.624;20.378;2023-06-14T14:03:51;5.97;;;3.07;;
69392;SDS011;56582;44.624;20.378;2023-06-14T14:06:17;4.95;;;3.50;;
69392;SDS011;56582;44.624;20.378;2023-06-14T14:08:42;5.23;;;3.70;;
69392;SDS011;56582;44.624;20.378;2023-06-14T14:11:09;6.40;;;4.22;;
69392;SDS011;56582;44.624;20.378;2023-06-14T14:13:35;6.83;;;4.17;;
69392;SDS011;56582;44.624;20.378;2023-06-14T14:16:04;5.03;;;3.42;;
69392;SDS011;56582;44.624;20.378;2023-06-14T14:18:31;5.53;;;3.38;;
69392;SDS011;56582;44.624;20.378;2023-06-14T14:20:57;6.47;;;3.97;;
69392;SDS011;56582;44.624;20.378;2023-06-14T14:23:23;6.17;;;3.87;;
69392;SDS011;56582;44.624;20.378;2023-06-14T14:25:49;5.57;;;4.40;;
69392;SDS011;56582;44.624;20.378;2023-06-14T14:28:15;6.23;;;4.10;;
69392;SDS011;56582;44.624;20.378;2023-06-14T14:30:45;5.72;;;3.58;;
69392;SDS011;56582;44.624;20.378;2023-06-14T14:33:12;6.57;;;3.60;;
69392;SDS011;56582;44.624;20.378;2023-06-14T14:35:45;6.20;;;3.92;;
69392;SDS011;56582;44.624;20.378;2023-06-14T14:38:13;6.43;;;4.07;;
69392;SDS011;56582;44.624;20.378;2023-06-14T14:40:40;6.32;;;3.95;;
69392;SDS011;56582;44.624;20.378;2023-06-14T14:43:06;7.63;;;3.90;;
69392;SDS011;56582;44.624;20.378;2023-06-14T14:45:31;5.88;;;3.95;;
69392;SDS011;56582;44.624;20.378;2023-06-14T14:47:57;6.22;;;3.97;;